Shelby, North Carolina
Current Conditions -  °F | °C
As of 10:35 AM on Monday 22 Dec 2014 (Local Time) from KEHO Reporting Station
Haze Haze  
Wind Chill: 32°   Ceiling: 700
Heat Index: 38°   Visibility: 3mi
Dew Point: 37°   Wind: 9mph
Humidity: 96%   Direction: 30°NNE
Pressure: 30.13"   Gusts: NA
Location:  35.29°N, 81.54°W
Report Text: KEHO 221535Z AUTO 03008KT 3SM BR BKN007 OVC010 03/03 A3013 RMK AO2 T00340028
Loading
Personal Weather Stations






























Interactive Weather Map New forecast layout! Learn more

10-Day Weather Forecast

Advertisements
Track Severe Weather on mobile